Terminal Aerodrome Forecast
Issued by NWS

Home | Current Version | Previous Version | Text Only | Print | Product List | Glossary On
Versions: 1 2 3 4 5 6 7 8 9 10 11 12 13 14 15
201
FTUS45 KTFX 250520
TAFLWT
TAF
KLWT 250520Z 2506/2606 10007KT P6SM BKN010 OVC050
     FM250900 10010KT 4SM -SHSN BR BKN008 OVC015
     FM251600 09007KT P6SM OVC030
     FM252200 11006KT P6SM -SHRA OVC025 PROB30 2523/2603 4SM -TSRA
      BKN020CB
     FM260500 14005KT P6SM OVC035=

USA.gov is the U.S. government's official web portal to all federal, state and local government web resources and services.